sensor_id;sensor_type;location;lat;lon;timestamp;temperature;humidity
24382;DHT22;12502;50.678;7.172;2022-09-20T00:02:31;11.70;99.90
24382;DHT22;12502;50.678;7.172;2022-09-20T00:07:33;11.60;99.90
24382;DHT22;12502;50.678;7.172;2022-09-20T00:12:35;11.60;99.90
24382;DHT22;12502;50.678;7.172;2022-09-20T00:17:36;11.60;99.90
24382;DHT22;12502;50.678;7.172;2022-09-20T00:22:38;11.60;99.90
24382;DHT22;12502;50.678;7.172;2022-09-20T00:27:40;11.60;99.90
24382;DHT22;12502;50.678;7.172;2022-09-20T00:32:42;11.60;99.90
24382;DHT22;12502;50.678;7.172;2022-09-20T00:37:43;11.60;99.90
24382;DHT22;12502;50.678;7.172;2022-09-20T00:42:46;11.50;99.90
24382;DHT22;12502;50.678;7.172;2022-09-20T00:53:10;11.50;99.90
24382;DHT22;12502;50.678;7.172;2022-09-20T00:58:13;11.40;99.90
24382;DHT22;12502;50.678;7.172;2022-09-20T01:03:17;11.30;99.90
24382;DHT22;12502;50.678;7.172;2022-09-20T01:08:23;11.30;99.90
24382;DHT22;12502;50.678;7.172;2022-09-20T01:13:25;11.30;99.90
24382;DHT22;12502;50.678;7.172;2022-09-20T01:18:29;11.20;99.90
24382;DHT22;12502;50.678;7.172;2022-09-20T01:23:50;11.20;99.90
24382;DHT22;12502;50.678;7.172;2022-09-20T01:34:33;11.20;99.90
24382;DHT22;12502;50.678;7.172;2022-09-20T01:45:13;11.00;99.90
24382;DHT22;12502;50.678;7.172;2022-09-20T02:01:43;11.00;99.90
24382;DHT22;12502;50.678;7.172;2022-09-20T02:34:00;11.00;99.90
24382;DHT22;12502;50.678;7.172;2022-09-20T02:39:40;11.00;99.90
24382;DHT22;12502;50.678;7.172;2022-09-20T02:44:55;11.00;99.90
24382;DHT22;12502;50.678;7.172;2022-09-20T02:50:20;11.00;99.90
24382;DHT22;12502;50.678;7.172;2022-09-20T02:55:59;11.00;99.90
24382;DHT22;12502;50.678;7.172;2022-09-20T03:01:24;11.00;99.90
24382;DHT22;12502;50.678;7.172;2022-09-20T03:12:18;10.90;99.90
24382;DHT22;12502;50.678;7.172;2022-09-20T03:39:41;10.60;99.90
24382;DHT22;12502;50.678;7.172;2022-09-20T03:50:15;10.60;99.90
24382;DHT22;12502;50.678;7.172;2022-09-20T03:55:36;10.60;99.90
24382;DHT22;12502;50.678;7.172;2022-09-20T04:01:07;10.60;99.90
24382;DHT22;12502;50.678;7.172;2022-09-20T04:11:39;10.50;99.90
24382;DHT22;12502;50.678;7.172;2022-09-20T04:16:59;10.50;99.90
24382;DHT22;12502;50.678;7.172;2022-09-20T04:22:04;10.60;99.90
24382;DHT22;12502;50.678;7.172;2022-09-20T04:27:11;10.60;99.90
24382;DHT22;12502;50.678;7.172;2022-09-20T04:32:34;10.60;99.90
24382;DHT22;12502;50.678;7.172;2022-09-20T04:37:37;10.60;99.90
24382;DHT22;12502;50.678;7.172;2022-09-20T04:53:48;10.60;99.90
24382;DHT22;12502;50.678;7.172;2022-09-20T04:59:04;10.60;99.90
24382;DHT22;12502;50.678;7.172;2022-09-20T05:15:09;10.60;99.90
24382;DHT22;12502;50.678;7.172;2022-09-20T05:31:40;10.60;99.90
24382;DHT22;12502;50.678;7.172;2022-09-20T05:41:55;10.50;99.90
24382;DHT22;12502;50.678;7.172;2022-09-20T05:47:16;10.60;99.90
24382;DHT22;12502;50.678;7.172;2022-09-20T05:52:46;10.60;99.90
24382;DHT22;12502;50.678;7.172;2022-09-20T06:14:26;10.80;99.90
24382;DHT22;12502;50.678;7.172;2022-09-20T06:20:01;10.90;99.90
24382;DHT22;12502;50.678;7.172;2022-09-20T06:30:17;10.90;99.90
24382;DHT22;12502;50.678;7.172;2022-09-20T06:35:21;11.00;99.90
24382;DHT22;12502;50.678;7.172;2022-09-20T06:45:50;11.10;99.90
24382;DHT22;12502;50.678;7.172;2022-09-20T06:50:52;11.10;99.90
24382;DHT22;12502;50.678;7.172;2022-09-20T06:55:54;11.10;99.90
24382;DHT22;12502;50.678;7.172;2022-09-20T07:00:57;11.20;99.90
24382;DHT22;12502;50.678;7.172;2022-09-20T07:05:59;11.30;99.90
24382;DHT22;12502;50.678;7.172;2022-09-20T07:11:10;11.40;99.90
24382;DHT22;12502;50.678;7.172;2022-09-20T07:16:13;11.40;99.90
24382;DHT22;12502;50.678;7.172;2022-09-20T07:21:17;11.50;99.90
24382;DHT22;12502;50.678;7.172;2022-09-20T07:26:22;11.60;99.90
24382;DHT22;12502;50.678;7.172;2022-09-20T07:31:26;11.70;99.90
24382;DHT22;12502;50.678;7.172;2022-09-20T07:36:28;11.80;99.90
24382;DHT22;12502;50.678;7.172;2022-09-20T07:41:30;11.90;99.90
24382;DHT22;12502;50.678;7.172;2022-09-20T07:46:32;12.00;99.90
24382;DHT22;12502;50.678;7.172;2022-09-20T07:51:39;12.00;99.90
24382;DHT22;12502;50.678;7.172;2022-09-20T07:56:41;12.20;99.90
24382;DHT22;12502;50.678;7.172;2022-09-20T08:01:43;12.20;99.90
24382;DHT22;12502;50.678;7.172;2022-09-20T08:06:45;12.30;99.90
24382;DHT22;12502;50.678;7.172;2022-09-20T08:11:47;12.40;99.90
24382;DHT22;12502;50.678;7.172;2022-09-20T08:16:50;12.40;99.90
24382;DHT22;12502;50.678;7.172;2022-09-20T08:21:52;12.60;99.90
24382;DHT22;12502;50.678;7.172;2022-09-20T08:26:54;12.70;99.90
24382;DHT22;12502;50.678;7.172;2022-09-20T08:31:57;12.80;99.90
24382;DHT22;12502;50.678;7.172;2022-09-20T08:37:00;12.80;99.90
24382;DHT22;12502;50.678;7.172;2022-09-20T08:42:38;12.80;99.90
24382;DHT22;12502;50.678;7.172;2022-09-20T08:47:50;12.80;99.90
24382;DHT22;12502;50.678;7.172;2022-09-20T08:53:00;12.80;99.90
24382;DHT22;12502;50.678;7.172;2022-09-20T08:58:12;12.80;99.90
24382;DHT22;12502;50.678;7.172;2022-09-20T09:03:16;12.90;99.90
24382;DHT22;12502;50.678;7.172;2022-09-20T09:08:26;12.90;99.90
24382;DHT22;12502;50.678;7.172;2022-09-20T09:13:40;12.90;99.90
24382;DHT22;12502;50.678;7.172;2022-09-20T09:18:45;13.00;99.90
24382;DHT22;12502;50.678;7.172;2022-09-20T09:23:52;13.00;99.90
24382;DHT22;12502;50.678;7.172;2022-09-20T09:34:29;13.20;99.90
24382;DHT22;12502;50.678;7.172;2022-09-20T09:39:34;13.50;99.90
24382;DHT22;12502;50.678;7.172;2022-09-20T09:44:38;13.60;99.90
24382;DHT22;12502;50.678;7.172;2022-09-20T09:49:55;13.70;99.90
24382;DHT22;12502;50.678;7.172;2022-09-20T09:55:02;13.70;99.90
24382;DHT22;12502;50.678;7.172;2022-09-20T10:00:14;13.60;99.90
24382;DHT22;12502;50.678;7.172;2022-09-20T10:05:43;13.60;99.90
24382;DHT22;12502;50.678;7.172;2022-09-20T10:27:35;13.90;99.90
24382;DHT22;12502;50.678;7.172;2022-09-20T10:32:59;14.00;99.90
24382;DHT22;12502;50.678;7.172;2022-09-20T10:38:23;14.10;99.90
24382;DHT22;12502;50.678;7.172;2022-09-20T10:43:33;14.00;99.90
24382;DHT22;12502;50.678;7.172;2022-09-20T10:48:45;14.00;99.90
24382;DHT22;12502;50.678;7.172;2022-09-20T10:59:20;14.00;99.90
24382;DHT22;12502;50.678;7.172;2022-09-20T11:09:39;13.90;99.90
24382;DHT22;12502;50.678;7.172;2022-09-20T11:14:50;13.90;99.90
24382;DHT22;12502;50.678;7.172;2022-09-20T11:20:04;13.80;99.90
24382;DHT22;12502;50.678;7.172;2022-09-20T11:25:19;13.80;99.90
24382;DHT22;12502;50.678;7.172;2022-09-20T11:30:33;13.80;99.90
24382;DHT22;12502;50.678;7.172;2022-09-20T11:35:51;13.80;99.90
24382;DHT22;12502;50.678;7.172;2022-09-20T11:41:09;13.80;99.90
24382;DHT22;12502;50.678;7.172;2022-09-20T11:46:18;13.80;99.90
24382;DHT22;12502;50.678;7.172;2022-09-20T11:56:51;13.90;99.90
24382;DHT22;12502;50.678;7.172;2022-09-20T12:01:56;14.00;99.90
24382;DHT22;12502;50.678;7.172;2022-09-20T12:12:42;14.10;99.90
24382;DHT22;12502;50.678;7.172;2022-09-20T12:22:47;14.20;99.90
24382;DHT22;12502;50.678;7.172;2022-09-20T12:32:57;14.20;99.90
24382;DHT22;12502;50.678;7.172;2022-09-20T12:43:20;14.10;99.90
24382;DHT22;12502;50.678;7.172;2022-09-20T12:48:23;14.10;99.90
24382;DHT22;12502;50.678;7.172;2022-09-20T12:53:25;14.10;99.90
24382;DHT22;12502;50.678;7.172;2022-09-20T12:58:37;14.10;99.90
24382;DHT22;12502;50.678;7.172;2022-09-20T13:03:42;14.10;99.90
24382;DHT22;12502;50.678;7.172;2022-09-20T13:19:31;14.00;99.90
24382;DHT22;12502;50.678;7.172;2022-09-20T13:24:40;13.90;99.90
24382;DHT22;12502;50.678;7.172;2022-09-20T13:29:43;13.90;99.90
24382;DHT22;12502;50.678;7.172;2022-09-20T13:34:45;13.90;99.90
24382;DHT22;12502;50.678;7.172;2022-09-20T13:40:05;13.90;99.90
24382;DHT22;12502;50.678;7.172;2022-09-20T13:45:11;14.00;99.90
24382;DHT22;12502;50.678;7.172;2022-09-20T13:50:21;14.10;99.90
24382;DHT22;12502;50.678;7.172;2022-09-20T13:55:32;14.30;99.90
24382;DHT22;12502;50.678;7.172;2022-09-20T14:00:36;14.50;99.90
24382;DHT22;12502;50.678;7.172;2022-09-20T14:05:52;14.60;99.90
24382;DHT22;12502;50.678;7.172;2022-09-20T14:16:26;14.70;99.90
24382;DHT22;12502;50.678;7.172;2022-09-20T14:21:31;14.70;99.90
24382;DHT22;12502;50.678;7.172;2022-09-20T14:26:34;14.70;99.90
24382;DHT22;12502;50.678;7.172;2022-09-20T14:31:41;14.60;99.90
24382;DHT22;12502;50.678;7.172;2022-09-20T14:36:48;14.50;99.90
24382;DHT22;12502;50.678;7.172;2022-09-20T14:41:50;14.50;99.90
24382;DHT22;12502;50.678;7.172;2022-09-20T14:46:51;14.50;99.90
24382;DHT22;12502;50.678;7.172;2022-09-20T14:52:29;14.50;99.90
24382;DHT22;12502;50.678;7.172;2022-09-20T14:57:32;14.50;99.90
24382;DHT22;12502;50.678;7.172;2022-09-20T15:02:34;14.60;99.90
24382;DHT22;12502;50.678;7.172;2022-09-20T15:07:36;14.50;99.90
24382;DHT22;12502;50.678;7.172;2022-09-20T15:12:38;14.50;99.90
24382;DHT22;12502;50.678;7.172;2022-09-20T15:17:41;14.50;99.90
24382;DHT22;12502;50.678;7.172;2022-09-20T15:22:43;14.50;99.90
24382;DHT22;12502;50.678;7.172;2022-09-20T15:27:45;14.60;99.90
24382;DHT22;12502;50.678;7.172;2022-09-20T15:32:47;14.50;99.90
24382;DHT22;12502;50.678;7.172;2022-09-20T15:37:49;14.50;99.90
24382;DHT22;12502;50.678;7.172;2022-09-20T15:42:55;14.50;99.90
24382;DHT22;12502;50.678;7.172;2022-09-20T15:47:58;14.60;99.90
24382;DHT22;12502;50.678;7.172;2022-09-20T15:53:00;14.60;99.90
24382;DHT22;12502;50.678;7.172;2022-09-20T15:58:02;14.70;99.90
24382;DHT22;12502;50.678;7.172;2022-09-20T16:03:04;14.70;99.90
24382;DHT22;12502;50.678;7.172;2022-09-20T16:08:06;14.60;99.90
24382;DHT22;12502;50.678;7.172;2022-09-20T16:13:08;14.60;99.90
24382;DHT22;12502;50.678;7.172;2022-09-20T16:18:09;14.50;99.90
24382;DHT22;12502;50.678;7.172;2022-09-20T16:23:31;14.50;99.90
24382;DHT22;12502;50.678;7.172;2022-09-20T16:28:33;14.50;99.90
24382;DHT22;12502;50.678;7.172;2022-09-20T16:33:35;14.50;99.90
24382;DHT22;12502;50.678;7.172;2022-09-20T16:38:36;14.40;99.90
24382;DHT22;12502;50.678;7.172;2022-09-20T16:43:39;14.40;99.90
24382;DHT22;12502;50.678;7.172;2022-09-20T16:48:41;14.40;99.90
24382;DHT22;12502;50.678;7.172;2022-09-20T16:53:44;14.30;99.90
24382;DHT22;12502;50.678;7.172;2022-09-20T16:58:46;14.20;99.90
24382;DHT22;12502;50.678;7.172;2022-09-20T17:03:48;14.30;99.90
24382;DHT22;12502;50.678;7.172;2022-09-20T17:08:54;14.20;99.90
24382;DHT22;12502;50.678;7.172;2022-09-20T17:14:00;14.10;99.90
24382;DHT22;12502;50.678;7.172;2022-09-20T17:19:12;14.00;99.90
24382;DHT22;12502;50.678;7.172;2022-09-20T17:24:17;14.00;99.90
24382;DHT22;12502;50.678;7.172;2022-09-20T17:29:19;13.90;99.90
24382;DHT22;12502;50.678;7.172;2022-09-20T17:34:22;13.90;99.90
24382;DHT22;12502;50.678;7.172;2022-09-20T17:39:24;13.90;99.90
24382;DHT22;12502;50.678;7.172;2022-09-20T17:44:26;13.80;99.90
24382;DHT22;12502;50.678;7.172;2022-09-20T17:49:28;13.80;99.90
24382;DHT22;12502;50.678;7.172;2022-09-20T17:54:31;13.70;99.90
24382;DHT22;12502;50.678;7.172;2022-09-20T17:59:33;13.70;99.90
24382;DHT22;12502;50.678;7.172;2022-09-20T18:04:37;13.70;99.90
24382;DHT22;12502;50.678;7.172;2022-09-20T18:09:38;13.60;99.90
24382;DHT22;12502;50.678;7.172;2022-09-20T18:14:40;13.70;99.90
24382;DHT22;12502;50.678;7.172;2022-09-20T18:19:42;13.60;99.90
24382;DHT22;12502;50.678;7.172;2022-09-20T18:24:45;13.60;99.90
24382;DHT22;12502;50.678;7.172;2022-09-20T18:29:46;13.60;99.90
24382;DHT22;12502;50.678;7.172;2022-09-20T18:34:48;13.60;99.90
24382;DHT22;12502;50.678;7.172;2022-09-20T18:39:51;13.60;99.90
24382;DHT22;12502;50.678;7.172;2022-09-20T18:44:53;13.60;99.90
24382;DHT22;12502;50.678;7.172;2022-09-20T18:49:55;13.50;99.90
24382;DHT22;12502;50.678;7.172;2022-09-20T18:54:57;13.50;99.90
24382;DHT22;12502;50.678;7.172;2022-09-20T18:59:59;13.50;99.90
24382;DHT22;12502;50.678;7.172;2022-09-20T19:05:54;13.50;99.90
24382;DHT22;12502;50.678;7.172;2022-09-20T19:10:55;13.50;99.90
24382;DHT22;12502;50.678;7.172;2022-09-20T19:16:20;13.50;99.90
24382;DHT22;12502;50.678;7.172;2022-09-20T19:21:29;13.40;99.90
24382;DHT22;12502;50.678;7.172;2022-09-20T19:26:32;13.40;99.90
24382;DHT22;12502;50.678;7.172;2022-09-20T19:31:39;13.30;99.90
24382;DHT22;12502;50.678;7.172;2022-09-20T19:37:04;13.20;99.90
24382;DHT22;12502;50.678;7.172;2022-09-20T19:42:14;13.20;99.90
24382;DHT22;12502;50.678;7.172;2022-09-20T19:47:54;13.20;99.90
24382;DHT22;12502;50.678;7.172;2022-09-20T19:53:01;13.00;99.90
24382;DHT22;12502;50.678;7.172;2022-09-20T19:58:04;12.90;99.90
24382;DHT22;12502;50.678;7.172;2022-09-20T20:03:08;12.80;99.90
24382;DHT22;12502;50.678;7.172;2022-09-20T20:13:31;12.70;99.90
24382;DHT22;12502;50.678;7.172;2022-09-20T20:24:49;12.60;99.90
24382;DHT22;12502;50.678;7.172;2022-09-20T20:29:54;12.50;99.90
24382;DHT22;12502;50.678;7.172;2022-09-20T20:34:56;12.50;99.90
24382;DHT22;12502;50.678;7.172;2022-09-20T20:39:58;12.40;99.90
24382;DHT22;12502;50.678;7.172;2022-09-20T20:45:00;12.40;99.90
24382;DHT22;12502;50.678;7.172;2022-09-20T20:50:02;12.30;99.90
24382;DHT22;12502;50.678;7.172;2022-09-20T20:55:04;12.30;99.90
24382;DHT22;12502;50.678;7.172;2022-09-20T21:00:07;12.30;99.90
24382;DHT22;12502;50.678;7.172;2022-09-20T21:05:09;12.20;99.90
24382;DHT22;12502;50.678;7.172;2022-09-20T21:10:10;12.10;99.90
24382;DHT22;12502;50.678;7.172;2022-09-20T21:15:13;12.10;99.90
24382;DHT22;12502;50.678;7.172;2022-09-20T21:20:15;12.00;99.90
24382;DHT22;12502;50.678;7.172;2022-09-20T21:25:17;11.90;99.90
24382;DHT22;12502;50.678;7.172;2022-09-20T21:30:18;11.80;99.90
24382;DHT22;12502;50.678;7.172;2022-09-20T21:35:20;11.80;99.90
24382;DHT22;12502;50.678;7.172;2022-09-20T21:40:24;11.70;99.90
24382;DHT22;12502;50.678;7.172;2022-09-20T21:45:26;11.60;99.90
24382;DHT22;12502;50.678;7.172;2022-09-20T21:50:30;11.60;99.90
24382;DHT22;12502;50.678;7.172;2022-09-20T21:55:31;11.50;99.90
24382;DHT22;12502;50.678;7.172;2022-09-20T22:00:34;11.40;99.90
24382;DHT22;12502;50.678;7.172;2022-09-20T22:05:36;11.40;99.90
24382;DHT22;12502;50.678;7.172;2022-09-20T22:10:38;11.30;99.90
24382;DHT22;12502;50.678;7.172;2022-09-20T22:15:40;11.30;99.90
24382;DHT22;12502;50.678;7.172;2022-09-20T22:20:41;11.20;99.90
24382;DHT22;12502;50.678;7.172;2022-09-20T22:25:43;11.10;99.90
24382;DHT22;12502;50.678;7.172;2022-09-20T22:30:45;11.00;99.90
24382;DHT22;12502;50.678;7.172;2022-09-20T22:35:47;10.90;99.90
24382;DHT22;12502;50.678;7.172;2022-09-20T22:40:53;10.80;99.90
24382;DHT22;12502;50.678;7.172;2022-09-20T22:46:01;10.70;99.90
24382;DHT22;12502;50.678;7.172;2022-09-20T22:51:12;10.70;99.90
24382;DHT22;12502;50.678;7.172;2022-09-20T22:56:17;10.60;99.90
24382;DHT22;12502;50.678;7.172;2022-09-20T23:01:22;10.50;99.90
24382;DHT22;12502;50.678;7.172;2022-09-20T23:06:33;10.40;99.90
24382;DHT22;12502;50.678;7.172;2022-09-20T23:11:37;10.40;99.90
24382;DHT22;12502;50.678;7.172;2022-09-20T23:16:39;10.30;99.90
24382;DHT22;12502;50.678;7.172;2022-09-20T23:21:42;10.20;99.90
24382;DHT22;12502;50.678;7.172;2022-09-20T23:26:44;10.10;99.90
24382;DHT22;12502;50.678;7.172;2022-09-20T23:31:46;10.00;99.90
24382;DHT22;12502;50.678;7.172;2022-09-20T23:36:48;10.00;99.90
24382;DHT22;12502;50.678;7.172;2022-09-20T23:41:50;9.90;99.90
24382;DHT22;12502;50.678;7.172;2022-09-20T23:46:52;9.90;99.90
24382;DHT22;12502;50.678;7.172;2022-09-20T23:51:53;9.70;99.90
24382;DHT22;12502;50.678;7.172;2022-09-20T23:56:55;9.70;99.90
